sensor_id;sensor_type;location;lat;lon;timestamp;P1;durP1;ratioP1;P2;durP2;ratioP2
21705;SDS011;11014;53.076;18.208;2023-06-14T00:00:22;7.93;;;7.13;;
21705;SDS011;11014;53.076;18.208;2023-06-14T00:03:11;7.85;;;6.90;;
21705;SDS011;11014;53.076;18.208;2023-06-14T00:05:46;8.25;;;7.00;;
21705;SDS011;11014;53.076;18.208;2023-06-14T00:08:15;11.98;;;7.50;;
21705;SDS011;11014;53.076;18.208;2023-06-14T00:10:44;7.30;;;6.32;;
21705;SDS011;11014;53.076;18.208;2023-06-14T00:13:13;9.75;;;6.72;;
21705;SDS011;11014;53.076;18.208;2023-06-14T00:15:43;9.00;;;7.20;;
21705;SDS011;11014;53.076;18.208;2023-06-14T00:18:12;8.50;;;7.18;;
21705;SDS011;11014;53.076;18.208;2023-06-14T00:20:41;7.75;;;6.72;;
21705;SDS011;11014;53.076;18.208;2023-06-14T00:23:10;7.63;;;6.82;;
21705;SDS011;11014;53.076;18.208;2023-06-14T00:25:40;12.63;;;8.00;;
21705;SDS011;11014;53.076;18.208;2023-06-14T00:28:08;8.38;;;6.80;;
21705;SDS011;11014;53.076;18.208;2023-06-14T00:30:38;8.90;;;7.03;;
21705;SDS011;11014;53.076;18.208;2023-06-14T00:33:06;8.90;;;7.43;;
21705;SDS011;11014;53.076;18.208;2023-06-14T00:35:35;8.88;;;7.05;;
21705;SDS011;11014;53.076;18.208;2023-06-14T00:38:04;9.82;;;7.05;;
21705;SDS011;11014;53.076;18.208;2023-06-14T00:40:33;9.73;;;6.85;;
21705;SDS011;11014;53.076;18.208;2023-06-14T00:43:03;8.98;;;7.75;;
21705;SDS011;11014;53.076;18.208;2023-06-14T00:45:32;7.13;;;6.38;;
21705;SDS011;11014;53.076;18.208;2023-06-14T00:48:04;10.60;;;6.80;;
21705;SDS011;11014;53.076;18.208;2023-06-14T00:50:36;8.23;;;7.07;;
21705;SDS011;11014;53.076;18.208;2023-06-14T00:53:06;8.10;;;7.30;;
21705;SDS011;11014;53.076;18.208;2023-06-14T00:55:35;10.30;;;7.60;;
21705;SDS011;11014;53.076;18.208;2023-06-14T00:58:04;13.13;;;7.28;;
21705;SDS011;11014;53.076;18.208;2023-06-14T01:00:33;10.13;;;6.95;;
21705;SDS011;11014;53.076;18.208;2023-06-14T01:03:02;8.57;;;7.78;;
21705;SDS011;11014;53.076;18.208;2023-06-14T01:05:35;9.02;;;7.78;;
21705;SDS011;11014;53.076;18.208;2023-06-14T01:13:50;11.48;;;7.90;;
21705;SDS011;11014;53.076;18.208;2023-06-14T01:16:23;9.02;;;8.07;;
21705;SDS011;11014;53.076;18.208;2023-06-14T01:18:53;8.73;;;7.82;;
21705;SDS011;11014;53.076;18.208;2023-06-14T01:21:28;9.70;;;8.00;;
21705;SDS011;11014;53.076;18.208;2023-06-14T01:23:57;10.55;;;7.90;;
21705;SDS011;11014;53.076;18.208;2023-06-14T01:26:27;11.52;;;9.07;;
21705;SDS011;11014;53.076;18.208;2023-06-14T01:29:00;12.13;;;8.80;;
21705;SDS011;11014;53.076;18.208;2023-06-14T01:31:32;11.35;;;9.18;;
21705;SDS011;11014;53.076;18.208;2023-06-14T01:34:09;9.90;;;8.85;;
21705;SDS011;11014;53.076;18.208;2023-06-14T01:36:39;14.13;;;9.55;;
21705;SDS011;11014;53.076;18.208;2023-06-14T01:39:11;14.60;;;9.80;;
21705;SDS011;11014;53.076;18.208;2023-06-14T01:41:44;12.02;;;9.93;;
21705;SDS011;11014;53.076;18.208;2023-06-14T01:44:16;11.30;;;10.07;;
21705;SDS011;11014;53.076;18.208;2023-06-14T01:46:46;11.63;;;10.05;;
21705;SDS011;11014;53.076;18.208;2023-06-14T01:49:16;11.98;;;9.50;;
21705;SDS011;11014;53.076;18.208;2023-06-14T01:51:45;13.27;;;9.68;;
21705;SDS011;11014;53.076;18.208;2023-06-14T01:54:16;13.98;;;10.25;;
21705;SDS011;11014;53.076;18.208;2023-06-14T01:56:46;12.02;;;10.07;;
21705;SDS011;11014;53.076;18.208;2023-06-14T01:59:14;13.68;;;9.75;;
21705;SDS011;11014;53.076;18.208;2023-06-14T02:01:44;15.63;;;10.05;;
21705;SDS011;11014;53.076;18.208;2023-06-14T02:04:32;11.80;;;10.25;;
21705;SDS011;11014;53.076;18.208;2023-06-14T02:07:01;11.68;;;10.48;;
21705;SDS011;11014;53.076;18.208;2023-06-14T02:09:30;12.85;;;10.98;;
21705;SDS011;11014;53.076;18.208;2023-06-14T02:12:01;12.73;;;11.35;;
21705;SDS011;11014;53.076;18.208;2023-06-14T02:14:30;15.15;;;11.60;;
21705;SDS011;11014;53.076;18.208;2023-06-14T02:16:59;17.10;;;12.07;;
21705;SDS011;11014;53.076;18.208;2023-06-14T02:19:29;15.48;;;11.88;;
21705;SDS011;11014;53.076;18.208;2023-06-14T02:21:58;14.73;;;11.38;;
21705;SDS011;11014;53.076;18.208;2023-06-14T02:24:27;15.40;;;11.95;;
21705;SDS011;11014;53.076;18.208;2023-06-14T02:26:59;20.00;;;12.20;;
21705;SDS011;11014;53.076;18.208;2023-06-14T02:29:28;15.63;;;12.93;;
21705;SDS011;11014;53.076;18.208;2023-06-14T02:31:57;13.40;;;11.90;;
21705;SDS011;11014;53.076;18.208;2023-06-14T02:34:26;14.02;;;12.40;;
21705;SDS011;11014;53.076;18.208;2023-06-14T02:36:55;14.38;;;11.88;;
21705;SDS011;11014;53.076;18.208;2023-06-14T02:39:27;14.60;;;11.68;;
21705;SDS011;11014;53.076;18.208;2023-06-14T02:41:56;16.00;;;11.98;;
21705;SDS011;11014;53.076;18.208;2023-06-14T02:44:25;14.57;;;11.38;;
21705;SDS011;11014;53.076;18.208;2023-06-14T02:50:07;13.90;;;11.98;;
21705;SDS011;11014;53.076;18.208;2023-06-14T02:52:36;12.45;;;11.15;;
21705;SDS011;11014;53.076;18.208;2023-06-14T02:55:06;13.00;;;11.07;;
21705;SDS011;11014;53.076;18.208;2023-06-14T02:57:37;13.77;;;10.53;;
21705;SDS011;11014;53.076;18.208;2023-06-14T03:00:08;12.90;;;10.30;;
21705;SDS011;11014;53.076;18.208;2023-06-14T03:02:45;12.38;;;10.27;;
21705;SDS011;11014;53.076;18.208;2023-06-14T03:05:15;13.73;;;10.70;;
21705;SDS011;11014;53.076;18.208;2023-06-14T03:07:44;13.45;;;10.75;;
21705;SDS011;11014;53.076;18.208;2023-06-14T03:10:13;15.68;;;10.75;;
21705;SDS011;11014;53.076;18.208;2023-06-14T03:12:46;13.95;;;9.90;;
21705;SDS011;11014;53.076;18.208;2023-06-14T03:15:16;12.30;;;10.02;;
21705;SDS011;11014;53.076;18.208;2023-06-14T03:17:48;13.25;;;9.57;;
21705;SDS011;11014;53.076;18.208;2023-06-14T03:20:18;14.95;;;10.23;;
21705;SDS011;11014;53.076;18.208;2023-06-14T03:22:48;13.95;;;10.35;;
21705;SDS011;11014;53.076;18.208;2023-06-14T03:25:18;12.77;;;9.95;;
21705;SDS011;11014;53.076;18.208;2023-06-14T03:27:51;11.13;;;9.93;;
21705;SDS011;11014;53.076;18.208;2023-06-14T03:30:20;12.68;;;10.02;;
21705;SDS011;11014;53.076;18.208;2023-06-14T03:35:21;14.48;;;10.05;;
21705;SDS011;11014;53.076;18.208;2023-06-14T03:37:50;13.80;;;9.70;;
21705;SDS011;11014;53.076;18.208;2023-06-14T03:40:19;12.00;;;10.35;;
21705;SDS011;11014;53.076;18.208;2023-06-14T03:42:54;16.55;;;10.48;;
21705;SDS011;11014;53.076;18.208;2023-06-14T03:45:23;13.88;;;10.65;;
21705;SDS011;11014;53.076;18.208;2023-06-14T03:47:53;12.05;;;9.55;;
21705;SDS011;11014;53.076;18.208;2023-06-14T03:50:29;15.65;;;10.18;;
21705;SDS011;11014;53.076;18.208;2023-06-14T03:55:54;14.80;;;9.82;;
21705;SDS011;11014;53.076;18.208;2023-06-14T03:58:43;15.07;;;9.90;;
21705;SDS011;11014;53.076;18.208;2023-06-14T04:01:12;10.60;;;9.40;;
21705;SDS011;11014;53.076;18.208;2023-06-14T04:03:41;14.00;;;9.70;;
21705;SDS011;11014;53.076;18.208;2023-06-14T04:06:10;14.50;;;9.55;;
21705;SDS011;11014;53.076;18.208;2023-06-14T04:08:39;15.40;;;9.48;;
21705;SDS011;11014;53.076;18.208;2023-06-14T04:11:08;15.82;;;10.85;;
21705;SDS011;11014;53.076;18.208;2023-06-14T04:13:37;14.68;;;10.77;;
21705;SDS011;11014;53.076;18.208;2023-06-14T04:16:07;15.57;;;11.48;;
21705;SDS011;11014;53.076;18.208;2023-06-14T04:18:37;12.80;;;10.40;;
21705;SDS011;11014;53.076;18.208;2023-06-14T04:21:05;14.02;;;11.45;;
21705;SDS011;11014;53.076;18.208;2023-06-14T04:23:35;18.13;;;11.80;;
21705;SDS011;11014;53.076;18.208;2023-06-14T04:26:03;14.18;;;11.63;;
21705;SDS011;11014;53.076;18.208;2023-06-14T04:28:32;14.30;;;11.70;;
21705;SDS011;11014;53.076;18.208;2023-06-14T04:31:05;15.85;;;12.18;;
21705;SDS011;11014;53.076;18.208;2023-06-14T04:33:37;17.67;;;12.32;;
21705;SDS011;11014;53.076;18.208;2023-06-14T04:36:16;15.60;;;11.75;;
21705;SDS011;11014;53.076;18.208;2023-06-14T04:38:48;13.73;;;11.23;;
21705;SDS011;11014;53.076;18.208;2023-06-14T04:44:41;14.60;;;11.50;;
21705;SDS011;11014;53.076;18.208;2023-06-14T04:47:10;13.80;;;10.35;;
21705;SDS011;11014;53.076;18.208;2023-06-14T04:49:44;12.65;;;10.95;;
21705;SDS011;11014;53.076;18.208;2023-06-14T04:52:12;14.30;;;11.40;;
21705;SDS011;11014;53.076;18.208;2023-06-14T04:54:44;14.82;;;10.00;;
21705;SDS011;11014;53.076;18.208;2023-06-14T04:57:17;13.27;;;10.07;;
21705;SDS011;11014;53.076;18.208;2023-06-14T04:59:49;12.55;;;10.48;;
21705;SDS011;11014;53.076;18.208;2023-06-14T05:02:24;13.63;;;9.98;;
21705;SDS011;11014;53.076;18.208;2023-06-14T05:04:55;12.93;;;9.60;;
21705;SDS011;11014;53.076;18.208;2023-06-14T05:07:24;11.52;;;10.00;;
21705;SDS011;11014;53.076;18.208;2023-06-14T05:09:57;13.68;;;9.77;;
21705;SDS011;11014;53.076;18.208;2023-06-14T05:12:40;14.07;;;8.90;;
21705;SDS011;11014;53.076;18.208;2023-06-14T05:15:13;15.15;;;9.48;;
21705;SDS011;11014;53.076;18.208;2023-06-14T05:17:45;13.10;;;9.55;;
21705;SDS011;11014;53.076;18.208;2023-06-14T05:20:22;10.80;;;9.10;;
21705;SDS011;11014;53.076;18.208;2023-06-14T05:22:53;11.05;;;8.55;;
21705;SDS011;11014;53.076;18.208;2023-06-14T05:25:22;11.52;;;8.57;;
21705;SDS011;11014;53.076;18.208;2023-06-14T05:27:50;13.02;;;9.40;;
21705;SDS011;11014;53.076;18.208;2023-06-14T05:30:20;15.43;;;9.13;;
21705;SDS011;11014;53.076;18.208;2023-06-14T05:32:49;11.15;;;8.65;;
21705;SDS011;11014;53.076;18.208;2023-06-14T05:35:18;11.07;;;8.68;;
21705;SDS011;11014;53.076;18.208;2023-06-14T05:37:47;12.63;;;9.23;;
21705;SDS011;11014;53.076;18.208;2023-06-14T05:40:16;13.57;;;8.38;;
21705;SDS011;11014;53.076;18.208;2023-06-14T05:42:45;15.73;;;8.98;;
21705;SDS011;11014;53.076;18.208;2023-06-14T05:45:14;14.23;;;9.25;;
21705;SDS011;11014;53.076;18.208;2023-06-14T05:47:44;13.20;;;8.60;;
21705;SDS011;11014;53.076;18.208;2023-06-14T05:50:13;13.88;;;8.90;;
21705;SDS011;11014;53.076;18.208;2023-06-14T05:52:42;15.32;;;9.07;;
21705;SDS011;11014;53.076;18.208;2023-06-14T05:55:11;12.65;;;8.27;;
21705;SDS011;11014;53.076;18.208;2023-06-14T05:57:41;10.27;;;8.30;;
21705;SDS011;11014;53.076;18.208;2023-06-14T06:00:10;11.13;;;8.35;;
21705;SDS011;11014;53.076;18.208;2023-06-14T06:02:40;12.40;;;8.98;;
21705;SDS011;11014;53.076;18.208;2023-06-14T06:05:13;13.15;;;8.38;;
21705;SDS011;11014;53.076;18.208;2023-06-14T06:07:44;14.48;;;9.18;;
21705;SDS011;11014;53.076;18.208;2023-06-14T06:10:13;13.50;;;9.63;;
21705;SDS011;11014;53.076;18.208;2023-06-14T06:12:42;12.43;;;10.13;;
21705;SDS011;11014;53.076;18.208;2023-06-14T06:15:11;15.93;;;10.25;;
21705;SDS011;11014;53.076;18.208;2023-06-14T06:17:40;18.48;;;10.32;;
21705;SDS011;11014;53.076;18.208;2023-06-14T06:20:23;13.93;;;9.73;;
21705;SDS011;11014;53.076;18.208;2023-06-14T06:22:59;14.50;;;10.45;;
21705;SDS011;11014;53.076;18.208;2023-06-14T06:25:28;13.10;;;9.82;;
21705;SDS011;11014;53.076;18.208;2023-06-14T06:28:03;15.85;;;10.30;;
21705;SDS011;11014;53.076;18.208;2023-06-14T06:30:31;14.95;;;11.15;;
21705;SDS011;11014;53.076;18.208;2023-06-14T06:33:00;16.95;;;11.82;;
21705;SDS011;11014;53.076;18.208;2023-06-14T06:35:29;18.58;;;11.07;;
21705;SDS011;11014;53.076;18.208;2023-06-14T06:37:59;17.98;;;11.43;;
21705;SDS011;11014;53.076;18.208;2023-06-14T06:40:29;16.38;;;11.15;;
21705;SDS011;11014;53.076;18.208;2023-06-14T06:42:57;16.17;;;10.35;;
21705;SDS011;11014;53.076;18.208;2023-06-14T06:45:28;17.45;;;10.73;;
21705;SDS011;11014;53.076;18.208;2023-06-14T06:47:56;14.82;;;9.65;;
21705;SDS011;11014;53.076;18.208;2023-06-14T06:50:25;18.50;;;11.07;;
21705;SDS011;11014;53.076;18.208;2023-06-14T06:52:54;16.15;;;10.38;;
21705;SDS011;11014;53.076;18.208;2023-06-14T06:55:22;19.65;;;10.07;;
21705;SDS011;11014;53.076;18.208;2023-06-14T06:57:51;20.58;;;10.10;;
21705;SDS011;11014;53.076;18.208;2023-06-14T07:00:22;16.17;;;9.98;;
21705;SDS011;11014;53.076;18.208;2023-06-14T07:02:53;13.50;;;10.07;;
21705;SDS011;11014;53.076;18.208;2023-06-14T07:05:23;13.50;;;9.77;;
21705;SDS011;11014;53.076;18.208;2023-06-14T07:07:52;16.92;;;10.00;;
21705;SDS011;11014;53.076;18.208;2023-06-14T07:10:24;14.60;;;9.15;;
21705;SDS011;11014;53.076;18.208;2023-06-14T07:12:52;13.68;;;8.57;;
21705;SDS011;11014;53.076;18.208;2023-06-14T07:15:21;12.45;;;9.15;;
21705;SDS011;11014;53.076;18.208;2023-06-14T07:17:49;12.90;;;8.52;;
21705;SDS011;11014;53.076;18.208;2023-06-14T07:20:20;11.88;;;8.90;;
21705;SDS011;11014;53.076;18.208;2023-06-14T07:22:49;12.90;;;9.20;;
21705;SDS011;11014;53.076;18.208;2023-06-14T07:25:18;16.77;;;9.18;;
21705;SDS011;11014;53.076;18.208;2023-06-14T07:27:48;15.23;;;8.90;;
21705;SDS011;11014;53.076;18.208;2023-06-14T07:30:17;16.10;;;9.10;;
21705;SDS011;11014;53.076;18.208;2023-06-14T07:32:45;14.60;;;9.63;;
21705;SDS011;11014;53.076;18.208;2023-06-14T07:35:14;18.63;;;10.60;;
21705;SDS011;11014;53.076;18.208;2023-06-14T07:37:43;19.83;;;10.25;;
21705;SDS011;11014;53.076;18.208;2023-06-14T07:40:12;15.80;;;9.68;;
21705;SDS011;11014;53.076;18.208;2023-06-14T07:42:41;14.55;;;9.43;;
21705;SDS011;11014;53.076;18.208;2023-06-14T07:45:11;13.57;;;10.82;;
21705;SDS011;11014;53.076;18.208;2023-06-14T07:47:42;18.17;;;11.38;;
21705;SDS011;11014;53.076;18.208;2023-06-14T07:50:11;14.63;;;9.80;;
21705;SDS011;11014;53.076;18.208;2023-06-14T07:52:41;17.58;;;10.18;;
21705;SDS011;11014;53.076;18.208;2023-06-14T07:55:10;17.02;;;11.13;;
21705;SDS011;11014;53.076;18.208;2023-06-14T07:57:38;15.88;;;10.57;;
21705;SDS011;11014;53.076;18.208;2023-06-14T08:00:07;19.67;;;11.07;;
21705;SDS011;11014;53.076;18.208;2023-06-14T08:02:38;22.05;;;11.27;;
21705;SDS011;11014;53.076;18.208;2023-06-14T08:05:09;19.33;;;10.77;;
21705;SDS011;11014;53.076;18.208;2023-06-14T08:07:39;19.70;;;12.07;;
21705;SDS011;11014;53.076;18.208;2023-06-14T08:10:08;21.80;;;10.60;;
21705;SDS011;11014;53.076;18.208;2023-06-14T08:12:38;17.83;;;11.38;;
21705;SDS011;11014;53.076;18.208;2023-06-14T08:15:06;16.40;;;10.27;;
21705;SDS011;11014;53.076;18.208;2023-06-14T08:17:42;15.57;;;10.18;;
21705;SDS011;11014;53.076;18.208;2023-06-14T08:20:12;14.50;;;10.70;;
21705;SDS011;11014;53.076;18.208;2023-06-14T08:22:41;18.85;;;10.02;;
21705;SDS011;11014;53.076;18.208;2023-06-14T08:25:10;14.68;;;9.90;;
21705;SDS011;11014;53.076;18.208;2023-06-14T08:27:40;17.63;;;10.05;;
21705;SDS011;11014;53.076;18.208;2023-06-14T08:30:09;11.77;;;8.10;;
21705;SDS011;11014;53.076;18.208;2023-06-14T08:32:39;10.73;;;7.78;;
21705;SDS011;11014;53.076;18.208;2023-06-14T08:35:07;13.65;;;7.05;;
21705;SDS011;11014;53.076;18.208;2023-06-14T08:37:42;14.13;;;7.45;;
21705;SDS011;11014;53.076;18.208;2023-06-14T08:40:18;15.40;;;6.85;;
21705;SDS011;11014;53.076;18.208;2023-06-14T08:42:54;12.27;;;6.82;;
21705;SDS011;11014;53.076;18.208;2023-06-14T08:45:24;10.25;;;7.10;;
21705;SDS011;11014;53.076;18.208;2023-06-14T08:47:56;11.02;;;6.55;;
21705;SDS011;11014;53.076;18.208;2023-06-14T08:50:28;14.90;;;7.15;;
21705;SDS011;11014;53.076;18.208;2023-06-14T08:53:01;9.18;;;5.93;;
21705;SDS011;11014;53.076;18.208;2023-06-14T08:55:32;11.15;;;6.22;;
21705;SDS011;11014;53.076;18.208;2023-06-14T08:58:04;13.85;;;6.50;;
21705;SDS011;11014;53.076;18.208;2023-06-14T09:00:33;14.30;;;6.70;;
21705;SDS011;11014;53.076;18.208;2023-06-14T09:03:02;8.82;;;6.47;;
21705;SDS011;11014;53.076;18.208;2023-06-14T09:05:32;12.25;;;6.93;;
21705;SDS011;11014;53.076;18.208;2023-06-14T09:08:00;11.55;;;6.32;;
21705;SDS011;11014;53.076;18.208;2023-06-14T09:10:33;14.25;;;6.53;;
21705;SDS011;11014;53.076;18.208;2023-06-14T09:13:06;13.25;;;6.00;;
21705;SDS011;11014;53.076;18.208;2023-06-14T09:15:35;10.68;;;6.30;;
21705;SDS011;11014;53.076;18.208;2023-06-14T09:18:03;9.35;;;5.88;;
21705;SDS011;11014;53.076;18.208;2023-06-14T09:20:34;12.02;;;5.65;;
21705;SDS011;11014;53.076;18.208;2023-06-14T09:23:03;8.70;;;5.80;;
21705;SDS011;11014;53.076;18.208;2023-06-14T09:25:43;9.93;;;5.60;;
21705;SDS011;11014;53.076;18.208;2023-06-14T09:28:14;9.15;;;5.68;;
21705;SDS011;11014;53.076;18.208;2023-06-14T09:30:43;13.95;;;6.07;;
21705;SDS011;11014;53.076;18.208;2023-06-14T09:33:16;12.23;;;6.60;;
21705;SDS011;11014;53.076;18.208;2023-06-14T09:35:45;11.77;;;6.03;;
21705;SDS011;11014;53.076;18.208;2023-06-14T09:38:18;7.85;;;6.55;;
21705;SDS011;11014;53.076;18.208;2023-06-14T09:40:47;12.43;;;6.82;;
21705;SDS011;11014;53.076;18.208;2023-06-14T09:43:15;15.10;;;7.00;;
21705;SDS011;11014;53.076;18.208;2023-06-14T09:45:44;17.92;;;7.18;;
21705;SDS011;11014;53.076;18.208;2023-06-14T09:48:16;9.15;;;6.63;;
21705;SDS011;11014;53.076;18.208;2023-06-14T09:50:46;10.65;;;7.20;;
21705;SDS011;11014;53.076;18.208;2023-06-14T09:53:17;14.27;;;8.02;;
21705;SDS011;11014;53.076;18.208;2023-06-14T09:55:51;11.55;;;7.60;;
21705;SDS011;11014;53.076;18.208;2023-06-14T09:58:22;13.03;;;7.37;;
21705;SDS011;11014;53.076;18.208;2023-06-14T10:00:54;10.98;;;7.50;;
21705;SDS011;11014;53.076;18.208;2023-06-14T10:03:27;12.20;;;7.35;;
21705;SDS011;11014;53.076;18.208;2023-06-14T10:06:17;12.40;;;7.38;;
21705;SDS011;11014;53.076;18.208;2023-06-14T10:08:46;13.30;;;6.72;;
21705;SDS011;11014;53.076;18.208;2023-06-14T10:11:17;16.80;;;7.72;;
21705;SDS011;11014;53.076;18.208;2023-06-14T10:13:46;11.00;;;6.40;;
21705;SDS011;11014;53.076;18.208;2023-06-14T10:16:17;9.45;;;7.03;;
21705;SDS011;11014;53.076;18.208;2023-06-14T10:18:52;10.70;;;7.03;;
21705;SDS011;11014;53.076;18.208;2023-06-14T10:21:32;11.13;;;7.65;;
21705;SDS011;11014;53.076;18.208;2023-06-14T10:24:32;16.55;;;8.70;;
21705;SDS011;11014;53.076;18.208;2023-06-14T10:27:07;12.10;;;7.30;;
21705;SDS011;11014;53.076;18.208;2023-06-14T10:32:27;11.30;;;7.15;;
21705;SDS011;11014;53.076;18.208;2023-06-14T10:35:04;11.02;;;7.43;;
21705;SDS011;11014;53.076;18.208;2023-06-14T10:37:35;12.88;;;7.57;;
21705;SDS011;11014;53.076;18.208;2023-06-14T10:40:04;16.20;;;7.10;;
21705;SDS011;11014;53.076;18.208;2023-06-14T10:42:36;10.95;;;7.40;;
21705;SDS011;11014;53.076;18.208;2023-06-14T10:45:05;9.30;;;6.82;;
21705;SDS011;11014;53.076;18.208;2023-06-14T10:50:30;12.57;;;7.03;;
21705;SDS011;11014;53.076;18.208;2023-06-14T10:52:59;11.02;;;7.05;;
21705;SDS011;11014;53.076;18.208;2023-06-14T10:55:27;10.95;;;7.20;;
21705;SDS011;11014;53.076;18.208;2023-06-14T10:58:07;14.43;;;7.40;;
21705;SDS011;11014;53.076;18.208;2023-06-14T11:00:35;12.43;;;6.78;;
21705;SDS011;11014;53.076;18.208;2023-06-14T11:11:32;8.45;;;5.60;;
21705;SDS011;11014;53.076;18.208;2023-06-14T11:14:04;11.15;;;6.15;;
21705;SDS011;11014;53.076;18.208;2023-06-14T11:16:32;9.60;;;6.78;;
21705;SDS011;11014;53.076;18.208;2023-06-14T11:19:01;12.07;;;6.45;;
21705;SDS011;11014;53.076;18.208;2023-06-14T11:21:33;9.27;;;6.55;;
21705;SDS011;11014;53.076;18.208;2023-06-14T11:24:02;9.70;;;6.00;;
21705;SDS011;11014;53.076;18.208;2023-06-14T11:26:31;9.80;;;5.93;;
21705;SDS011;11014;53.076;18.208;2023-06-14T11:34:04;9.30;;;5.82;;
21705;SDS011;11014;53.076;18.208;2023-06-14T11:36:34;14.45;;;6.43;;
21705;SDS011;11014;53.076;18.208;2023-06-14T11:39:04;10.88;;;5.80;;
21705;SDS011;11014;53.076;18.208;2023-06-14T11:44:56;6.00;;;4.25;;
21705;SDS011;11014;53.076;18.208;2023-06-14T11:47:36;5.28;;;3.92;;
21705;SDS011;11014;53.076;18.208;2023-06-14T11:50:10;4.60;;;3.40;;
21705;SDS011;11014;53.076;18.208;2023-06-14T11:52:39;6.05;;;3.67;;
21705;SDS011;11014;53.076;18.208;2023-06-14T11:55:08;7.00;;;4.10;;
21705;SDS011;11014;53.076;18.208;2023-06-14T11:57:37;5.07;;;4.25;;
21705;SDS011;11014;53.076;18.208;2023-06-14T12:00:07;7.28;;;4.82;;
21705;SDS011;11014;53.076;18.208;2023-06-14T12:02:51;7.22;;;6.05;;
21705;SDS011;11014;53.076;18.208;2023-06-14T12:05:22;13.30;;;5.95;;
21705;SDS011;11014;53.076;18.208;2023-06-14T12:07:57;9.73;;;5.53;;
21705;SDS011;11014;53.076;18.208;2023-06-14T12:10:39;6.95;;;5.10;;
21705;SDS011;11014;53.076;18.208;2023-06-14T12:13:10;8.25;;;4.85;;
21705;SDS011;11014;53.076;18.208;2023-06-14T12:15:39;7.78;;;4.50;;
21705;SDS011;11014;53.076;18.208;2023-06-14T12:18:07;8.93;;;5.18;;
21705;SDS011;11014;53.076;18.208;2023-06-14T12:20:39;6.32;;;4.82;;
21705;SDS011;11014;53.076;18.208;2023-06-14T12:23:09;14.93;;;5.13;;
21705;SDS011;11014;53.076;18.208;2023-06-14T12:25:39;9.00;;;4.45;;
21705;SDS011;11014;53.076;18.208;2023-06-14T12:28:08;6.10;;;4.18;;
21705;SDS011;11014;53.076;18.208;2023-06-14T12:30:38;14.10;;;4.85;;
21705;SDS011;11014;53.076;18.208;2023-06-14T12:33:07;7.47;;;4.68;;
21705;SDS011;11014;53.076;18.208;2023-06-14T12:35:36;5.95;;;4.03;;
21705;SDS011;11014;53.076;18.208;2023-06-14T12:38:05;7.20;;;4.80;;
21705;SDS011;11014;53.076;18.208;2023-06-14T12:40:34;9.13;;;4.20;;
21705;SDS011;11014;53.076;18.208;2023-06-14T12:43:03;6.05;;;3.75;;
21705;SDS011;11014;53.076;18.208;2023-06-14T12:45:33;9.15;;;4.80;;
21705;SDS011;11014;53.076;18.208;2023-06-14T12:48:02;8.82;;;4.43;;
21705;SDS011;11014;53.076;18.208;2023-06-14T12:50:32;9.27;;;4.82;;
21705;SDS011;11014;53.076;18.208;2023-06-14T12:53:03;8.90;;;4.50;;
21705;SDS011;11014;53.076;18.208;2023-06-14T12:55:32;11.70;;;5.03;;
21705;SDS011;11014;53.076;18.208;2023-06-14T12:58:01;10.45;;;4.90;;
21705;SDS011;11014;53.076;18.208;2023-06-14T13:00:31;7.97;;;5.18;;
21705;SDS011;11014;53.076;18.208;2023-06-14T13:03:02;19.35;;;6.90;;
21705;SDS011;11014;53.076;18.208;2023-06-14T13:05:32;12.63;;;6.85;;
21705;SDS011;11014;53.076;18.208;2023-06-14T13:08:01;13.07;;;6.35;;
21705;SDS011;11014;53.076;18.208;2023-06-14T13:10:30;14.80;;;6.63;;
21705;SDS011;11014;53.076;18.208;2023-06-14T13:13:02;9.45;;;5.95;;
21705;SDS011;11014;53.076;18.208;2023-06-14T13:15:31;10.50;;;5.95;;
21705;SDS011;11014;53.076;18.208;2023-06-14T13:18:00;8.30;;;5.90;;
21705;SDS011;11014;53.076;18.208;2023-06-14T13:20:29;7.18;;;5.35;;
21705;SDS011;11014;53.076;18.208;2023-06-14T13:22:59;13.32;;;6.10;;
21705;SDS011;11014;53.076;18.208;2023-06-14T13:25:28;7.40;;;5.15;;
21705;SDS011;11014;53.076;18.208;2023-06-14T13:27:58;9.23;;;5.70;;
21705;SDS011;11014;53.076;18.208;2023-06-14T13:30:26;8.30;;;5.35;;
21705;SDS011;11014;53.076;18.208;2023-06-14T13:32:55;13.65;;;5.70;;
21705;SDS011;11014;53.076;18.208;2023-06-14T13:35:24;13.40;;;5.00;;
21705;SDS011;11014;53.076;18.208;2023-06-14T13:37:53;9.35;;;4.82;;
21705;SDS011;11014;53.076;18.208;2023-06-14T13:40:22;6.03;;;4.22;;
21705;SDS011;11014;53.076;18.208;2023-06-14T13:42:51;8.27;;;4.30;;
21705;SDS011;11014;53.076;18.208;2023-06-14T13:45:20;5.88;;;3.80;;
21705;SDS011;11014;53.076;18.208;2023-06-14T13:47:48;8.27;;;3.97;;
21705;SDS011;11014;53.076;18.208;2023-06-14T13:50:17;5.45;;;3.88;;
21705;SDS011;11014;53.076;18.208;2023-06-14T13:52:46;7.00;;;4.50;;
21705;SDS011;11014;53.076;18.208;2023-06-14T13:55:15;7.57;;;4.22;;
21705;SDS011;11014;53.076;18.208;2023-06-14T13:57:44;6.55;;;4.20;;
21705;SDS011;11014;53.076;18.208;2023-06-14T14:00:13;4.55;;;3.80;;
21705;SDS011;11014;53.076;18.208;2023-06-14T14:02:42;5.47;;;4.10;;
21705;SDS011;11014;53.076;18.208;2023-06-14T14:05:11;12.10;;;4.07;;
21705;SDS011;11014;53.076;18.208;2023-06-14T14:07:40;4.55;;;3.13;;
21705;SDS011;11014;53.076;18.208;2023-06-14T14:10:09;6.07;;;3.15;;
21705;SDS011;11014;53.076;18.208;2023-06-14T14:12:41;6.40;;;3.20;;
21705;SDS011;11014;53.076;18.208;2023-06-14T14:15:14;4.18;;;2.70;;
21705;SDS011;11014;53.076;18.208;2023-06-14T14:17:45;7.32;;;3.30;;
21705;SDS011;11014;53.076;18.208;2023-06-14T14:20:15;4.13;;;3.22;;
21705;SDS011;11014;53.076;18.208;2023-06-14T14:22:47;4.78;;;3.08;;
21705;SDS011;11014;53.076;18.208;2023-06-14T14:25:17;4.88;;;3.22;;
21705;SDS011;11014;53.076;18.208;2023-06-14T14:27:46;4.80;;;3.20;;
21705;SDS011;11014;53.076;18.208;2023-06-14T14:30:16;3.88;;;3.28;;
21705;SDS011;11014;53.076;18.208;2023-06-14T14:32:48;5.18;;;3.53;;
21705;SDS011;11014;53.076;18.208;2023-06-14T14:35:17;5.10;;;3.47;;
21705;SDS011;11014;53.076;18.208;2023-06-14T14:37:45;5.85;;;3.80;;
21705;SDS011;11014;53.076;18.208;2023-06-14T14:40:14;4.18;;;3.75;;
21705;SDS011;11014;53.076;18.208;2023-06-14T14:42:43;6.18;;;4.00;;
21705;SDS011;11014;53.076;18.208;2023-06-14T14:45:12;5.13;;;4.20;;
21705;SDS011;11014;53.076;18.208;2023-06-14T14:50:37;4.40;;;3.70;;
21705;SDS011;11014;53.076;18.208;2023-06-14T14:53:05;6.57;;;3.83;;
21705;SDS011;11014;53.076;18.208;2023-06-14T14:56:24;6.10;;;4.00;;
21705;SDS011;11014;53.076;18.208;2023-06-14T14:59:09;7.00;;;4.60;;
21705;SDS011;11014;53.076;18.208;2023-06-14T15:01:38;6.10;;;4.10;;
21705;SDS011;11014;53.076;18.208;2023-06-14T15:04:07;7.65;;;4.45;;
21705;SDS011;11014;53.076;18.208;2023-06-14T15:06:35;6.65;;;4.18;;
21705;SDS011;11014;53.076;18.208;2023-06-14T15:09:13;9.20;;;4.53;;
21705;SDS011;11014;53.076;18.208;2023-06-14T15:14:13;6.05;;;4.72;;
21705;SDS011;11014;53.076;18.208;2023-06-14T15:16:43;5.50;;;4.80;;
21705;SDS011;11014;53.076;18.208;2023-06-14T15:19:13;7.00;;;4.53;;
21705;SDS011;11014;53.076;18.208;2023-06-14T15:21:41;6.10;;;4.75;;
21705;SDS011;11014;53.076;18.208;2023-06-14T15:24:11;9.15;;;4.68;;
21705;SDS011;11014;53.076;18.208;2023-06-14T15:26:40;6.55;;;4.93;;
21705;SDS011;11014;53.076;18.208;2023-06-14T15:29:15;7.38;;;5.22;;